createdAt,value
2023-03-20T00:01:19.045Z,99258.66
2023-03-20T00:03:46.868Z,99255.97
2023-03-20T00:06:18.306Z,99272.03
2023-03-20T00:08:46.695Z,99268.34
2023-03-20T00:11:33.185Z,99281.72
2023-03-20T00:14:00.279Z,99269.00
2023-03-20T00:16:31.033Z,99295.25
2023-03-20T00:18:58.622Z,99298.75
2023-03-20T00:21:26.344Z,99301.09
2023-03-20T00:23:54.587Z,99312.13
2023-03-20T00:26:24.816Z,99307.81
2023-03-20T00:28:52.352Z,99307.44
2023-03-20T00:31:30.318Z,99310.78
2023-03-20T00:33:58.387Z,99305.44
2023-03-20T00:36:25.534Z,99296.59
2023-03-20T00:38:53.019Z,99299.06
2023-03-20T00:41:23.068Z,99297.06
2023-03-20T00:43:52.696Z,99275.31
2023-03-20T00:46:20.058Z,99282.31
2023-03-20T00:48:47.589Z,99280.78
2023-03-20T00:51:14.751Z,99285.41
2023-03-20T00:53:41.918Z,99296.75
2023-03-20T00:56:28.608Z,99309.59
2023-03-20T00:58:55.876Z,99317.91
2023-03-20T01:01:24.417Z,99331.13
2023-03-20T01:03:52.022Z,99344.63
2023-03-20T01:06:19.110Z,99347.44
2023-03-20T01:08:48.810Z,99359.31
2023-03-20T01:11:20.467Z,99365.78
2023-03-20T01:13:48.819Z,99380.28
2023-03-20T01:16:23.231Z,99406.00
2023-03-20T01:18:50.917Z,99411.69
2023-03-20T01:21:18.884Z,99417.63
2023-03-20T01:23:46.031Z,99430.47
2023-03-20T01:26:24.126Z,99442.00
2023-03-20T01:28:51.614Z,99450.28
2023-03-20T01:31:19.563Z,99468.84
2023-03-20T01:33:46.848Z,99466.66
2023-03-20T01:36:15.330Z,99487.06
2023-03-20T01:38:42.793Z,99491.75
2023-03-20T01:41:17.992Z,99569.19
2023-03-20T01:43:46.140Z,99578.19
2023-03-20T01:46:19.419Z,99585.66
2023-03-20T01:48:52.111Z,99588.91
2023-03-20T01:51:22.756Z,99626.25
2023-03-20T01:53:58.645Z,99652.97
2023-03-20T01:56:27.534Z,99677.09
2023-03-20T01:58:58.351Z,99696.88
2023-03-20T02:01:27.660Z,99674.50
2023-03-20T02:03:55.802Z,99675.66
2023-03-20T02:06:23.708Z,99681.44
2023-03-20T02:09:09.573Z,99689.97
2023-03-20T02:11:42.064Z,99722.00
2023-03-20T02:14:09.586Z,99739.16
2023-03-20T02:16:46.902Z,99751.38
2023-03-20T02:19:29.203Z,99774.28
2023-03-20T02:22:23.539Z,99775.25
2023-03-20T02:25:15.607Z,99774.28
2023-03-20T02:28:03.181Z,99800.16
2023-03-20T02:30:40.241Z,99810.44
2023-03-20T02:33:31.578Z,99832.50
2023-03-20T02:36:25.975Z,99880.47
2023-03-20T02:39:04.017Z,99892.66
2023-03-20T02:41:31.073Z,99915.31
2023-03-20T02:44:07.570Z,99940.19
2023-03-20T02:46:41.181Z,99965.34
2023-03-20T02:49:27.396Z,99981.81
2023-03-20T02:51:54.448Z,100027.38
2023-03-20T02:57:32.401Z,99675.75
2023-03-20T03:00:09.813Z,99679.28
2023-03-20T03:02:43.319Z,99687.44
2023-03-20T03:05:18.329Z,99675.59
2023-03-20T03:07:50.267Z,99679.28
2023-03-20T03:10:31.788Z,99675.06
2023-03-20T03:13:00.420Z,99669.56
2023-03-20T03:15:30.602Z,99685.06
2023-03-20T03:17:59.607Z,99682.38
2023-03-20T03:20:32.442Z,99692.91
2023-03-20T03:22:59.998Z,99691.78
2023-03-20T03:25:29.341Z,99703.31
2023-03-20T03:28:08.762Z,99710.50
2023-03-20T03:30:37.638Z,99707.69
2023-03-20T03:33:18.879Z,99716.69
2023-03-20T03:35:46.731Z,99706.16
2023-03-20T03:38:13.766Z,99713.03
2023-03-20T03:40:41.206Z,99713.88
2023-03-20T03:43:27.169Z,99720.22
2023-03-20T03:45:59.480Z,99713.69
2023-03-20T03:48:30.635Z,99721.72
2023-03-20T03:51:00.464Z,99721.72
2023-03-20T03:53:31.136Z,99736.63
2023-03-20T03:56:00.713Z,99742.81
2023-03-20T03:58:33.486Z,99740.84
2023-03-20T04:01:02.502Z,99741.69
2023-03-20T04:03:35.066Z,99729.81
2023-03-20T04:06:03.228Z,99723.94
2023-03-20T04:08:30.408Z,99733.34
2023-03-20T04:11:00.099Z,99730.66
2023-03-20T04:13:27.315Z,99726.16
2023-03-20T04:15:54.590Z,99723.63
2023-03-20T04:18:21.740Z,99726.47
2023-03-20T04:20:49.056Z,99724.78
2023-03-20T04:23:17.053Z,99721.13
2023-03-20T04:25:44.345Z,99727.97
2023-03-20T04:28:11.924Z,99718.47
2023-03-20T04:30:58.814Z,99712.41
2023-03-20T04:33:34.980Z,99723.09
2023-03-20T04:36:20.400Z,99713.56
2023-03-20T04:38:48.504Z,99725.09
2023-03-20T04:41:15.610Z,99723.41
2023-03-20T04:43:47.823Z,99722.41
2023-03-20T04:46:14.911Z,99736.75
2023-03-20T04:48:42.133Z,99742.81
2023-03-20T04:51:09.995Z,99740.00
2023-03-20T04:53:47.909Z,99745.63
2023-03-20T04:56:15.392Z,99745.94
2023-03-20T04:58:42.523Z,99756.47
2023-03-20T05:01:10.615Z,99764.50
2023-03-20T05:03:37.757Z,99759.97
2023-03-20T05:06:05.631Z,99772.38
2023-03-20T05:08:33.303Z,99780.25
2023-03-20T05:11:01.221Z,99781.22
2023-03-20T05:13:55.246Z,99774.88
2023-03-20T05:16:36.235Z,99780.25
2023-03-20T05:19:21.435Z,99780.25
2023-03-20T05:21:48.483Z,99786.44
2023-03-20T05:24:35.947Z,99783.91
2023-03-20T05:27:08.699Z,99790.09
2023-03-20T05:29:48.346Z,99780.53
2023-03-20T05:32:27.907Z,99775.59
2023-03-20T05:35:12.232Z,99784.69
2023-03-20T05:38:02.542Z,99785.13
2023-03-20T05:40:45.085Z,99788.97
2023-03-20T05:43:41.122Z,99788.81
2023-03-20T05:46:28.552Z,99793.13
2023-03-20T05:49:21.479Z,99792.84
2023-03-20T05:52:16.165Z,99790.19
2023-03-20T05:54:52.519Z,99792.28
2023-03-20T05:57:40.824Z,99793.75
2023-03-20T06:00:40.269Z,99908.84
2023-03-20T06:03:39.442Z,99903.50
2023-03-20T06:06:12.434Z,99917.16
2023-03-20T06:08:40.664Z,99919.13
2023-03-20T06:11:07.975Z,99921.09
2023-03-20T06:13:37.767Z,99920.94
2023-03-20T06:16:06.561Z,99924.75
2023-03-20T06:18:33.716Z,99927.28
2023-03-20T06:21:02.235Z,99924.59
2023-03-20T06:23:30.162Z,99933.19
2023-03-20T06:25:58.371Z,99925.97
2023-03-20T06:28:26.207Z,99922.31
2023-03-20T06:31:01.073Z,99927.66
2023-03-20T06:33:29.276Z,99927.38
2023-03-20T06:36:00.465Z,99929.06
2023-03-20T06:38:30.705Z,99927.38
2023-03-20T06:40:59.969Z,99930.06
2023-03-20T06:43:28.133Z,99930.91
2023-03-20T06:45:55.391Z,99930.06
2023-03-20T06:48:26.112Z,99924.00
2023-03-20T06:50:53.590Z,99908.53
2023-03-20T06:53:24.027Z,99910.34
2023-03-20T06:56:20.056Z,99895.81
2023-03-20T06:58:47.223Z,99914.25
2023-03-20T07:01:16.805Z,99910.47
2023-03-20T07:03:45.142Z,99910.47
2023-03-20T07:06:13.444Z,99907.34
2023-03-20T07:08:40.643Z,99909.88
2023-03-20T07:11:08.267Z,99907.03
2023-03-20T07:13:35.557Z,99912.91
2023-03-20T07:16:12.414Z,99902.22
2023-03-20T07:18:41.452Z,99907.13
2023-03-20T07:21:08.948Z,99915.56
2023-03-20T07:23:36.384Z,99918.75
2023-03-20T07:26:04.148Z,99913.81
2023-03-20T07:28:31.416Z,99916.31
2023-03-20T07:31:23.925Z,99920.91
2023-03-20T07:33:58.058Z,99919.03
2023-03-20T07:36:25.501Z,99942.88
2023-03-20T07:38:52.577Z,99938.22
2023-03-20T07:41:19.728Z,99928.91
2023-03-20T07:43:57.641Z,99935.00
2023-03-20T07:46:25.747Z,99938.47
2023-03-20T07:48:53.960Z,99945.25
2023-03-20T07:51:21.112Z,99942.50
2023-03-20T07:53:48.198Z,99939.69
2023-03-20T07:56:17.661Z,99943.72
2023-03-20T07:58:44.707Z,99943.09
2023-03-20T08:01:11.741Z,99949.91
2023-03-20T08:03:39.578Z,99941.38
2023-03-20T08:06:09.537Z,99942.28
2023-03-20T08:08:36.658Z,99946.59
2023-03-20T08:11:03.910Z,99934.50
2023-03-20T08:13:31.096Z,99943.13
2023-03-20T08:15:58.311Z,99941.06
2023-03-20T08:18:25.539Z,99949.50
2023-03-20T08:20:52.653Z,99969.63
2023-03-20T08:23:20.887Z,99974.88
2023-03-20T08:25:52.182Z,99975.22
2023-03-20T08:28:20.730Z,99998.22
2023-03-20T08:30:47.996Z,99998.06
2023-03-20T08:33:16.381Z,99966.75
2023-03-20T08:35:43.636Z,99984.50
2023-03-20T08:38:13.882Z,99993.25
2023-03-20T08:40:44.251Z,99983.19
2023-03-20T08:43:11.870Z,99965.63
2023-03-20T08:45:39.139Z,99947.75
2023-03-20T08:48:06.488Z,99967.66
2023-03-20T08:50:33.615Z,99976.09
2023-03-20T08:53:01.180Z,99976.78
2023-03-20T08:55:28.235Z,99967.03
2023-03-20T08:57:57.323Z,99968.72
2023-03-20T09:00:24.921Z,99963.03
2023-03-20T09:02:52.250Z,99962.81
2023-03-20T09:05:19.498Z,99972.78
2023-03-20T09:07:46.566Z,99991.97
2023-03-20T09:10:13.695Z,99982.38
2023-03-20T09:12:40.964Z,99977.50
2023-03-20T09:15:08.340Z,99970.81
2023-03-20T09:17:35.420Z,99996.84
2023-03-20T09:20:02.693Z,99998.00
2023-03-20T09:22:29.849Z,99994.47
2023-03-20T09:24:56.942Z,99959.06
2023-03-20T09:27:24.028Z,99979.53
2023-03-20T09:29:51.061Z,100005.69
2023-03-20T09:32:18.121Z,99972.97
2023-03-20T09:34:45.241Z,99974.78
2023-03-20T09:37:12.466Z,99977.63
2023-03-20T09:39:39.616Z,100014.47
2023-03-20T09:42:24.203Z,99994.66
2023-03-20T09:45:01.478Z,99988.72
2023-03-20T09:47:28.521Z,99963.81
2023-03-20T09:50:03.718Z,100001.47
2023-03-20T09:52:32.556Z,99976.31
2023-03-20T09:55:02.959Z,99987.41
2023-03-20T09:57:35.484Z,100028.13
2023-03-20T10:00:05.554Z,99997.94
2023-03-20T10:02:45.475Z,99992.53
2023-03-20T10:05:32.872Z,99958.84
2023-03-20T10:08:01.719Z,99928.56
2023-03-20T10:10:34.943Z,99964.53
2023-03-20T10:13:08.706Z,99976.56
2023-03-20T10:15:48.935Z,99957.13
2023-03-20T10:18:26.589Z,99957.41
2023-03-20T10:20:59.876Z,99975.75
2023-03-20T10:23:40.908Z,99946.00
2023-03-20T10:26:11.500Z,99969.19
2023-03-20T10:28:51.876Z,99945.56
2023-03-20T10:31:28.122Z,99953.84
2023-03-20T10:33:57.975Z,99961.97
2023-03-20T10:36:48.152Z,99951.09
2023-03-20T10:39:40.444Z,99918.88
2023-03-20T10:42:19.819Z,99901.63
2023-03-20T10:44:51.513Z,99937.28
2023-03-20T10:47:21.839Z,99907.25
2023-03-20T10:49:51.969Z,99917.81
2023-03-20T10:52:22.511Z,99897.34
2023-03-20T10:54:53.341Z,99883.44
2023-03-20T10:57:23.086Z,99890.84
2023-03-20T10:59:51.182Z,99884.13
2023-03-20T11:02:19.713Z,99844.34
2023-03-20T11:04:46.943Z,99850.78
2023-03-20T11:07:14.001Z,99869.69
2023-03-20T11:09:41.637Z,99838.63
2023-03-20T11:12:16.568Z,99840.88
2023-03-20T11:14:43.638Z,99840.63
2023-03-20T11:17:11.267Z,99843.88
2023-03-20T11:19:39.706Z,99810.28
2023-03-20T11:22:08.733Z,99818.03
2023-03-20T11:24:37.586Z,99790.41
2023-03-20T11:27:09.907Z,99744.47
2023-03-20T11:29:37.349Z,99774.97
2023-03-20T11:32:16.027Z,99719.25
2023-03-20T11:34:43.477Z,99672.47
2023-03-20T11:37:41.052Z,99648.59
2023-03-20T11:40:11.163Z,99664.50
2023-03-20T11:42:38.579Z,99673.50
2023-03-20T11:45:07.388Z,99620.78
2023-03-20T11:47:36.077Z,99626.75
2023-03-20T11:50:05.986Z,99619.41
2023-03-20T11:52:34.725Z,99584.41
2023-03-20T11:55:04.042Z,99599.63
2023-03-20T11:57:33.184Z,99564.03
2023-03-20T12:00:19.296Z,99587.84
2023-03-20T12:02:46.705Z,99540.47
2023-03-20T12:05:32.161Z,99583.91
2023-03-20T12:08:19.499Z,99524.66
2023-03-20T12:10:51.012Z,99564.75
2023-03-20T12:13:21.843Z,99528.81
2023-03-20T12:15:54.306Z,99503.59
2023-03-20T12:18:40.969Z,99516.53
2023-03-20T12:21:15.038Z,99452.97
2023-03-20T12:23:42.134Z,99478.75
2023-03-20T12:26:15.076Z,99458.84
2023-03-20T12:29:05.043Z,99463.09
2023-03-20T12:31:46.522Z,99441.28
2023-03-20T12:34:18.531Z,99474.72
2023-03-20T12:36:47.049Z,99438.81
2023-03-20T12:39:16.719Z,99445.88
2023-03-20T12:42:04.729Z,99472.56
2023-03-20T12:44:46.828Z,99439.47
2023-03-20T12:47:18.420Z,99422.06
2023-03-20T12:50:12.541Z,99448.03
2023-03-20T12:52:58.531Z,99400.41
2023-03-20T12:55:29.642Z,99416.00
2023-03-20T12:58:16.960Z,99406.69
2023-03-20T13:01:04.407Z,99419.63
2023-03-20T13:03:37.343Z,99351.19
2023-03-20T13:06:24.629Z,99340.47
2023-03-20T13:08:51.650Z,99294.72
2023-03-20T13:11:37.370Z,99296.44
2023-03-20T13:14:08.926Z,99287.50
2023-03-20T13:16:45.882Z,99241.66
2023-03-20T13:19:13.020Z,99258.06
2023-03-20T13:21:43.144Z,99249.94
2023-03-20T13:24:13.330Z,99212.19
2023-03-20T13:26:55.647Z,99190.88
2023-03-20T13:29:41.714Z,99202.72
2023-03-20T13:32:11.619Z,99163.38
2023-03-20T13:34:38.730Z,99202.91
2023-03-20T13:37:22.780Z,99220.84
2023-03-20T13:40:06.387Z,99194.13
2023-03-20T13:42:47.723Z,99166.69
2023-03-20T13:45:22.046Z,99169.66
2023-03-20T13:47:49.879Z,99177.56
2023-03-20T13:50:35.958Z,99163.72
2023-03-20T13:53:32.505Z,99131.94
2023-03-20T13:55:59.537Z,99083.84
2023-03-20T13:58:36.413Z,99098.41
2023-03-20T14:01:09.323Z,99123.63
2023-03-20T14:03:41.070Z,99094.06
2023-03-20T14:06:23.312Z,99088.06
2023-03-20T14:08:53.468Z,99075.94
2023-03-20T14:11:20.840Z,99062.63
2023-03-20T14:13:50.124Z,99028.09
2023-03-20T14:16:18.675Z,99053.88
2023-03-20T14:18:47.702Z,99046.59
2023-03-20T14:21:18.159Z,99044.06
2023-03-20T14:23:50.620Z,99051.13
2023-03-20T14:26:20.448Z,99016.63
2023-03-20T14:28:57.677Z,99046.69
2023-03-20T14:31:24.782Z,99044.34
2023-03-20T14:34:00.515Z,99054.44
2023-03-20T14:36:40.716Z,99046.09
2023-03-20T14:39:40.711Z,99051.63
2023-03-20T14:42:26.575Z,99044.63
2023-03-20T14:45:12.530Z,99059.09
2023-03-20T14:47:39.544Z,99085.75
2023-03-20T14:50:25.498Z,99082.34
2023-03-20T14:53:14.280Z,99098.81
2023-03-20T14:55:47.549Z,99089.59
2023-03-20T14:58:33.294Z,99103.69
2023-03-20T15:01:04.955Z,99101.38
2023-03-20T15:03:32.903Z,99109.63
2023-03-20T15:06:01.211Z,99118.94
2023-03-20T15:08:31.255Z,99126.13
2023-03-20T15:10:59.578Z,99147.78
2023-03-20T15:13:27.850Z,99157.91
2023-03-20T15:15:56.565Z,99163.34
2023-03-20T15:18:24.819Z,99173.53
2023-03-20T15:20:52.105Z,99183.59
2023-03-20T15:23:19.181Z,99195.44
2023-03-20T15:25:47.446Z,99209.47
2023-03-20T15:28:20.513Z,99218.59
2023-03-20T15:30:49.269Z,99211.94
2023-03-20T15:33:20.264Z,99227.84
2023-03-20T15:35:47.489Z,99220.59
2023-03-20T15:38:16.288Z,99246.84
2023-03-20T15:40:51.129Z,99236.56
2023-03-20T15:43:24.369Z,99254.06
2023-03-20T15:46:03.025Z,99252.59
2023-03-20T15:48:33.810Z,99260.84
2023-03-20T15:51:05.038Z,99275.13
2023-03-20T15:53:34.580Z,99274.03
2023-03-20T15:56:17.170Z,99266.66
2023-03-20T15:58:46.021Z,99295.75
2023-03-20T16:01:17.264Z,99291.47
2023-03-20T16:03:44.639Z,99301.88
2023-03-20T16:06:15.365Z,99308.28
2023-03-20T16:08:42.554Z,99304.56
2023-03-20T16:11:13.942Z,99302.63
2023-03-20T16:13:42.466Z,99323.75
2023-03-20T16:16:15.005Z,99313.50
2023-03-20T16:18:42.876Z,99332.06
2023-03-20T16:21:13.258Z,99349.75
2023-03-20T16:23:42.216Z,99345.94
2023-03-20T16:26:13.382Z,99335.00
2023-03-20T16:28:40.516Z,99338.75
2023-03-20T16:31:09.656Z,99368.56
2023-03-20T16:33:38.010Z,99373.31
2023-03-20T16:36:07.122Z,99351.00
2023-03-20T16:38:35.545Z,99364.97
2023-03-20T16:41:21.375Z,99362.06
2023-03-20T16:43:51.393Z,99354.56
2023-03-20T16:46:22.747Z,99379.31
2023-03-20T16:48:56.869Z,99370.25
2023-03-20T16:51:29.260Z,99387.34
2023-03-20T16:53:57.530Z,99388.50
2023-03-20T16:56:35.314Z,99401.50
2023-03-20T16:59:09.619Z,99397.34
2023-03-20T17:01:41.313Z,99412.25
2023-03-20T17:04:28.759Z,99404.72
2023-03-20T17:06:58.693Z,99418.81
2023-03-20T17:09:27.586Z,99416.34
2023-03-20T17:12:13.674Z,99441.59
2023-03-20T17:14:41.561Z,99441.97
2023-03-20T17:17:13.056Z,99442.88
2023-03-20T17:19:40.283Z,99438.66
2023-03-20T17:22:15.637Z,99452.94
2023-03-20T17:24:42.973Z,99441.44
2023-03-20T17:27:11.743Z,99455.88
2023-03-20T17:29:39.187Z,99443.19
2023-03-20T17:32:10.678Z,99446.94
2023-03-20T17:34:37.826Z,99450.44
2023-03-20T17:37:05.436Z,99463.38
2023-03-20T17:39:32.740Z,99452.00
2023-03-20T17:41:59.861Z,99468.13
2023-03-20T17:44:27.398Z,99454.75
2023-03-20T17:46:59.189Z,99474.72
2023-03-20T17:49:27.332Z,99487.25
2023-03-20T17:51:55.367Z,99498.44
2023-03-20T17:54:22.517Z,99508.16
2023-03-20T17:56:49.963Z,99514.34
2023-03-20T17:59:17.566Z,99509.69
2023-03-20T18:01:45.021Z,99502.13
2023-03-20T18:04:12.199Z,99507.03
2023-03-20T18:06:39.272Z,99505.66
2023-03-20T18:09:08.851Z,99508.72
2023-03-20T18:11:35.964Z,99518.91
2023-03-20T18:14:04.180Z,99521.13
2023-03-20T18:16:32.567Z,99514.59
2023-03-20T18:19:01.460Z,99513.94
2023-03-20T18:21:28.577Z,99517.94
2023-03-20T18:23:56.178Z,99515.94
2023-03-20T18:26:25.100Z,99511.44
2023-03-20T18:28:53.321Z,99518.81
2023-03-20T18:31:23.079Z,99520.47
2023-03-20T18:33:51.731Z,99525.19
2023-03-20T18:36:20.549Z,99527.34
2023-03-20T18:38:48.368Z,99530.50
2023-03-20T18:41:15.624Z,99540.28
2023-03-20T18:43:46.404Z,99535.88
2023-03-20T18:46:14.550Z,99541.25
2023-03-20T18:48:42.050Z,99536.56
2023-03-20T18:51:09.483Z,99545.91
2023-03-20T18:53:37.323Z,99546.59
2023-03-20T18:56:06.957Z,99552.28
2023-03-20T18:58:34.215Z,99541.53
2023-03-20T19:01:01.580Z,99542.03
2023-03-20T19:03:28.875Z,99538.00
2023-03-20T19:05:57.889Z,99542.84
2023-03-20T19:08:25.269Z,99570.50
2023-03-20T19:10:52.441Z,99559.28
2023-03-20T19:13:20.749Z,99564.28
2023-03-20T19:15:48.241Z,99565.31
2023-03-20T19:18:17.327Z,99566.31
2023-03-20T19:20:45.402Z,99563.44
2023-03-20T19:23:14.021Z,99555.34
2023-03-20T19:25:42.716Z,99565.50
2023-03-20T19:28:39.048Z,99575.25
2023-03-20T19:31:06.930Z,99556.50
2023-03-20T19:33:36.704Z,99564.50
2023-03-20T19:36:04.924Z,99560.75
2023-03-20T19:38:32.559Z,99574.81
2023-03-20T19:41:00.221Z,99582.84
2023-03-20T19:43:28.930Z,99605.66
2023-03-20T19:45:58.748Z,99603.66
2023-03-20T19:48:43.234Z,99591.28
2023-03-20T19:51:16.264Z,99584.25
2023-03-20T19:53:43.568Z,99594.94
2023-03-20T19:56:13.770Z,99596.28
2023-03-20T19:58:41.106Z,99597.59
2023-03-20T20:01:14.996Z,99584.81
2023-03-20T20:03:43.114Z,99572.34
2023-03-20T20:06:10.175Z,99597.69
2023-03-20T20:08:48.994Z,99611.09
2023-03-20T20:11:17.864Z,99605.38
2023-03-20T20:14:04.762Z,99614.94
2023-03-20T20:16:33.778Z,99610.53
2023-03-20T20:19:00.840Z,99634.50
2023-03-20T20:22:13.392Z,99647.78
2023-03-20T20:24:16.321Z,99640.94
2023-03-20T20:26:53.836Z,99658.34
2023-03-20T20:29:24.378Z,99650.81
2023-03-20T20:31:51.859Z,99655.31
2023-03-20T20:39:54.219Z,99653.13
2023-03-20T20:42:21.521Z,99652.50
2023-03-20T20:44:49.300Z,99664.38
2023-03-20T20:47:16.497Z,99677.59
2023-03-20T20:49:45.995Z,99685.13
2023-03-20T20:52:13.639Z,99688.50
2023-03-20T20:54:43.725Z,99697.44
2023-03-20T20:57:11.849Z,99710.00
2023-03-20T20:59:40.282Z,99716.72
2023-03-20T21:02:11.412Z,99713.91
2023-03-20T21:04:39.884Z,99720.25
2023-03-20T21:07:10.782Z,99714.94
2023-03-20T21:09:39.210Z,99729.56
2023-03-20T21:12:08.063Z,99739.63
2023-03-20T21:14:37.732Z,99744.97
2023-03-20T21:17:06.005Z,99742.13
2023-03-20T21:19:35.018Z,99740.75
2023-03-20T21:22:02.096Z,99752.03
2023-03-20T21:24:33.808Z,99758.88
2023-03-20T21:27:03.427Z,99747.94
2023-03-20T21:29:30.738Z,99752.09
2023-03-20T21:31:57.925Z,99735.22
2023-03-20T21:34:25.687Z,99736.84
2023-03-20T21:36:52.744Z,99749.16
2023-03-20T21:39:20.342Z,99754.03
2023-03-20T21:41:47.396Z,99757.88
2023-03-20T21:44:18.384Z,99757.31
2023-03-20T21:47:44.503Z,99753.94
2023-03-20T21:56:21.992Z,99748.59
2023-03-20T22:15:29.142Z,99757.09
2023-03-20T22:18:12.246Z,99756.09
2023-03-20T22:37:48.830Z,99745.19
2023-03-20T22:43:05.176Z,99736.22
2023-03-20T22:45:34.448Z,99737.63
2023-03-20T22:48:10.334Z,99748.56
2023-03-20T22:50:38.294Z,99746.78
2023-03-20T22:53:05.846Z,99735.34
2023-03-20T22:55:33.221Z,99740.22
2023-03-20T22:58:07.468Z,99739.66
2023-03-20T23:00:36.136Z,99742.19
2023-03-20T23:03:19.440Z,99748.00
2023-03-20T23:06:21.700Z,99723.56
2023-03-20T23:08:55.141Z,99732.78
2023-03-20T23:11:24.785Z,99732.78
2023-03-20T23:13:52.023Z,99730.44
2023-03-20T23:16:19.657Z,99718.06
2023-03-20T23:18:46.770Z,99721.34
2023-03-20T23:21:13.848Z,99736.34
2023-03-20T23:23:40.936Z,99745.56
2023-03-20T23:26:09.551Z,99743.88
2023-03-20T23:28:37.670Z,99749.47
2023-03-20T23:31:10.368Z,99743.66
2023-03-20T23:33:38.743Z,99742.00
2023-03-20T23:36:16.520Z,99739.09
2023-03-20T23:38:48.810Z,99733.19
2023-03-20T23:41:16.327Z,99747.91
2023-03-20T23:43:43.518Z,99743.28
2023-03-20T23:46:11.168Z,99737.41
2023-03-20T23:48:39.302Z,99732.13
2023-03-20T23:51:06.658Z,99727.25
2023-03-20T23:53:33.822Z,99738.81
2023-03-20T23:56:01.011Z,99732.25
2023-03-20T23:58:28.290Z,99734.78
